Accueil
METAR-TAF:

METAR-TAF

Aéroports :

Aéroport de Saint-Nazaire - Montoir

Saint-Nazaire, France

latitude: 47-19N, longitude: 002-10W, altitude: 3 m

Observation

Le bulletin a été fait il y a 19 minutes, à 21:00 UTC
Vent 5 kt de nord/nord-ouest
Température 12°C
Humidité 82%
Pression 1029 hPa
Visibilité 10 km ou plus
pas de nuages en-dessous de 1500 mètres et pas de cumulonimbus.

METAR: LFRZ 062100Z AUTO 33005KT CAVOK 12/09 Q1029 NOSIG

Heure: 23:19 (21:19 UTC)

Prévision

Le bulletin a été fait il y a 4 heures et 19 minutes, à 17:00 UTC
Prévision valable du 06 à 18 UTC au 07 à 18 UTC
Vent 4 kt de nord/nord-est
Visibilité 10 km ou plus
pas de nuages en-dessous de 1500 mètres et pas de cumulonimbus.
Evoluant progressivement
du 07 à 14 UTC au 07 à 16 UTC
Vent 10 kt de nord-ouest

TAF: LFRZ 061700Z 0618/0718 02004KT CAVOK BECMG 0714/0716 32010KT

Observations et prévisions météorologiques de plus de 4000 aéroports (messages METAR et TAF).

Les stations disponibles sont représentées par des disques jaunes et rouges sur la carte.

Passer la souris dessus pour voir le nom de la station.

Cliquer dessus pour voir les observations et prévisions météorologiques.

Pour changer de carte: cliquez sur les boutons verts avec une croix noire pour zoomer, sur le bouton vert avec un tiret pour effectuer un zoom arrière, ou sur les flèches vertes pour les cartes adjacentes.


METAR-TAF: